Time;durP1;ratioP1;P1;durP2;ratioP2;P2;SDS_P1;SDS_P2;PMS_P1;PMS_P2;Temp;Humidity;BMP_temperature;BMP_pressure;BME280_temperature;BME280_humidity;BME280_pressure;Samples;Min_cycle;Max_cycle;Signal;HPM_P1;HPM_P2
2022/07/10 00:01:42;;;;;;;5.47;4.00;;;;;;;17.97;100.00;96829.00;5037135;28;20235;-73
2022/07/10 00:04:09;;;;;;;7.40;3.90;;;;;;;18.03;100.00;96836.16;5036428;28;20216;-73
2022/07/10 00:06:36;;;;;;;6.10;4.03;;;;;;;18.04;100.00;96835.16;5037257;28;20201;-72
2022/07/10 00:09:02;;;;;;;7.55;3.88;;;;;;;18.15;100.00;96827.31;5036739;28;20554;-73
2022/07/10 00:11:30;;;;;;;6.07;3.53;;;;;;;18.26;100.00;96824.03;5037173;28;20198;-73
2022/07/10 00:13:56;;;;;;;6.60;4.35;;;;;;;17.99;100.00;96821.63;5036601;28;20205;-73
2022/07/10 00:16:24;;;;;;;6.00;3.88;;;;;;;18.13;100.00;96817.88;5036713;28;20457;-73
2022/07/10 00:18:50;;;;;;;5.75;4.05;;;;;;;18.16;100.00;96822.78;5036761;28;20209;-71
2022/07/10 00:21:17;;;;;;;5.18;3.60;;;;;;;18.16;100.00;96822.78;5037125;28;20303;-73
2022/07/10 00:23:43;;;;;;;5.72;3.95;;;;;;;18.09;100.00;96811.34;5036237;28;20689;-73
2022/07/10 00:26:10;;;;;;;5.97;3.58;;;;;;;18.11;100.00;96814.59;5036856;28;20216;-72
2022/07/10 00:28:38;;;;;;;6.78;3.65;;;;;;;18.08;100.00;96815.03;5037105;28;20205;-73
2022/07/10 00:31:05;;;;;;;8.85;4.30;;;;;;;18.10;100.00;96816.47;5036536;28;20229;-73
2022/07/10 00:33:32;;;;;;;9.80;4.43;;;;;;;18.02;100.00;96818.53;5036302;28;20583;-73
2022/07/10 00:35:58;;;;;;;7.47;3.95;;;;;;;17.95;100.00;96815.88;5034418;28;20745;-72
2022/07/10 00:38:25;;;;;;;5.80;3.85;;;;;;;17.99;100.00;96813.63;5036266;28;20686;-72
2022/07/10 00:40:51;;;;;;;8.75;4.70;;;;;;;18.06;100.00;96814.41;5037142;28;20221;-73
2022/07/10 00:43:18;;;;;;;7.35;4.60;;;;;;;17.83;100.00;96822.03;5036196;28;20232;-73
2022/07/10 00:45:46;;;;;;;6.35;4.03;;;;;;;17.99;100.00;96816.28;5036205;28;20208;-73
2022/07/10 00:48:12;;;;;;;7.07;4.55;;;;;;;17.85;100.00;96815.47;5036889;28;20201;-72
2022/07/10 00:50:39;;;;;;;13.18;4.78;;;;;;;18.09;100.00;96816.66;5037902;28;20221;-73
2022/07/10 00:53:06;;;;;;;6.90;4.45;;;;;;;17.95;100.00;96810.53;5035884;28;20203;-73
2022/07/10 00:55:35;;;;;;;5.53;3.97;;;;;;;18.00;100.00;96810.72;5036651;28;20212;-72
2022/07/10 00:58:01;;;;;;;7.35;4.43;;;;;;;17.91;100.00;96808.50;5037269;28;20204;-73
2022/07/10 01:00:29;;;;;;;10.10;4.65;;;;;;;17.84;100.00;96807.69;5036914;28;20225;-73
2022/07/10 01:02:57;;;;;;;7.32;4.70;;;;;;;17.89;100.00;96813.22;5035531;28;20586;-73
2022/07/10 01:05:23;;;;;;;8.02;4.03;;;;;;;17.62;100.00;96811.63;5036432;28;20286;-72
2022/07/10 01:07:50;;;;;;;7.22;4.70;;;;;;;17.60;100.00;96813.66;5037055;28;20209;-72
2022/07/10 01:10:16;;;;;;;9.30;4.80;;;;;;;17.73;100.00;96809.13;5036423;28;20225;-73
2022/07/10 01:12:43;;;;;;;7.35;4.50;;;;;;;17.61;100.00;96812.63;5035843;28;20294;-73
2022/07/10 01:15:11;;;;;;;8.05;4.20;;;;;;;17.57;100.00;96807.94;5036661;28;20205;-72
2022/07/10 01:17:37;;;;;;;9.88;4.82;;;;;;;17.60;100.00;96811.00;5036155;28;20231;-72
2022/07/10 01:20:10;;;;;;;6.85;4.07;;;;;;;17.47;100.00;96799.53;5037043;28;20228;-72
2022/07/10 01:22:38;;;;;;;7.88;3.97;;;;;;;17.56;100.00;96803.63;5039653;28;20279;-73
2022/07/10 01:25:06;;;;;;;7.15;4.55;;;;;;;17.51;100.00;96798.91;5040219;28;20205;-73
2022/07/10 01:27:33;;;;;;;7.60;4.82;;;;;;;17.49;100.00;96797.47;5040013;28;20677;-73
2022/07/10 01:30:00;;;;;;;11.77;4.38;;;;;;;17.31;100.00;96798.09;5040137;28;20229;-73
2022/07/10 01:32:26;;;;;;;7.28;3.95;;;;;;;17.20;100.00;96800.53;5039886;28;20205;-73
2022/07/10 01:34:53;;;;;;;6.65;4.78;;;;;;;17.05;100.00;96815.06;5039916;28;20205;-72
2022/07/10 01:37:19;;;;;;;7.93;5.05;;;;;;;17.11;100.00;96807.06;5037100;28;20685;-73
2022/07/10 01:39:47;;;;;;;17.17;5.45;;;;;;;17.29;100.00;96796.66;5039992;28;20229;-72
2022/07/10 01:42:14;;;;;;;6.57;4.00;;;;;;;16.92;100.00;96807.03;5039507;28;20231;-73
2022/07/10 01:44:40;;;;;;;5.22;4.30;;;;;;;17.03;100.00;96803.75;5039321;28;20220;-73
2022/07/10 01:47:08;;;;;;;6.50;4.63;;;;;;;17.08;100.00;96802.97;5040261;28;20623;-73
2022/07/10 01:49:36;;;;;;;8.25;4.95;;;;;;;17.11;100.00;96807.88;5039460;28;20330;-72
2022/07/10 01:52:03;;;;;;;15.27;5.53;;;;;;;17.09;100.00;96807.28;5039873;28;20232;-73
2022/07/10 01:54:30;;;;;;;5.93;4.50;;;;;;;16.98;100.00;96798.22;5039143;28;20209;-73
2022/07/10 01:56:58;;;;;;;7.13;4.30;;;;;;;17.04;100.00;96802.75;5039847;28;20213;-73
2022/07/10 01:59:24;;;;;;;6.00;4.07;;;;;;;16.94;100.00;96802.31;5039547;28;20240;-72
2022/07/10 02:01:51;;;;;;;6.28;4.05;;;;;;;16.58;100.00;96807.97;5039440;28;20205;-72
2022/07/10 02:07:21;;;;;;;6.78;4.38;;;;;;;16.73;100.00;96799.84;5016159;28;20194;-72
2022/07/10 02:09:48;;;;;;;9.90;4.30;;;;;;;16.70;100.00;96794.88;5016469;28;20315;-73
2022/07/10 02:12:16;;;;;;;5.32;3.25;;;;;;;16.64;100.00;96796.53;5026711;28;20209;-72
2022/07/10 02:14:43;;;;;;;7.72;3.50;;;;;;;16.63;100.00;96794.06;5039151;28;20236;-72
2022/07/10 02:17:09;;;;;;;5.15;3.92;;;;;;;16.66;100.00;96791.00;5039675;28;20208;-73
2022/07/10 02:19:36;;;;;;;5.93;3.70;;;;;;;16.42;99.21;96799.53;5038889;28;20348;-73
2022/07/10 02:22:03;;;;;;;5.65;4.03;;;;;;;16.44;100.00;96805.47;5039443;28;20692;-73
2022/07/10 02:24:29;;;;;;;7.32;4.13;;;;;;;16.34;99.51;96814.84;5038607;28;20217;-72
2022/07/10 02:26:56;;;;;;;5.57;3.78;;;;;;;16.22;100.00;96811.88;5039003;28;20237;-72
2022/07/10 02:29:24;;;;;;;5.35;4.00;;;;;;;16.34;100.00;96812.19;5038834;28;20229;-72
2022/07/10 02:31:51;;;;;;;5.90;3.83;;;;;;;15.98;100.00;96806.25;5038476;28;20212;-72
2022/07/10 02:34:17;;;;;;;10.52;4.50;;;;;;;16.04;100.00;96803.63;5038638;28;20228;-72
2022/07/10 02:36:44;;;;;;;8.10;4.50;;;;;;;16.03;100.00;96806.47;5036343;28;20209;-73
2022/07/10 02:39:10;;;;;;;5.38;3.75;;;;;;;15.94;100.00;96797.84;5038840;28;20231;-71
2022/07/10 02:41:37;;;;;;;8.73;3.90;;;;;;;15.97;100.00;96792.16;5039219;28;20216;-73
2022/07/10 02:44:04;;;;;;;6.65;3.67;;;;;;;15.76;100.00;96801.19;5038222;28;20229;-72
2022/07/10 02:46:32;;;;;;;5.18;3.55;;;;;;;15.66;100.00;96806.06;5038478;28;20216;-72
2022/07/10 02:48:58;;;;;;;5.30;3.90;;;;;;;15.71;100.00;96808.94;5035612;28;20209;-73
2022/07/10 02:51:24;;;;;;;6.80;4.35;;;;;;;15.95;100.00;96815.44;5039141;28;20209;-73
2022/07/10 02:53:51;;;;;;;9.38;4.57;;;;;;;15.94;100.00;96811.13;5037519;28;20201;-72
2022/07/10 02:56:17;;;;;;;7.53;4.10;;;;;;;15.96;100.00;96806.44;5038613;28;20301;-72
2022/07/10 02:58:44;;;;;;;4.70;3.92;;;;;;;15.79;100.00;96803.47;5038911;28;20209;-73
2022/07/10 03:01:10;;;;;;;5.50;3.60;;;;;;;15.82;99.70;96809.19;5038208;28;20224;-73
2022/07/10 03:03:38;;;;;;;4.63;3.47;;;;;;;15.92;100.00;96815.84;5038017;28;20221;-72
2022/07/10 03:06:05;;;;;;;5.53;3.80;;;;;;;15.71;100.00;96807.09;5038470;28;20220;-73
2022/07/10 03:08:31;;;;;;;5.43;3.80;;;;;;;15.69;100.00;96816.28;5037551;28;20200;-73
2022/07/10 03:10:58;;;;;;;8.80;3.88;;;;;;;15.70;99.85;96815.28;5038107;28;20232;-72
2022/07/10 03:13:24;;;;;;;5.97;4.30;;;;;;;15.72;100.00;96814.06;5039070;28;20201;-73
2022/07/10 03:15:54;;;;;;;7.65;4.32;;;;;;;15.72;100.00;96811.41;5037604;28;20288;-73
2022/07/10 03:18:20;;;;;;;6.88;4.80;;;;;;;15.67;100.00;96805.00;5037479;28;20205;-72
2022/07/10 03:20:48;;;;;;;8.90;4.85;;;;;;;15.71;100.00;96800.97;5038190;28;21390;-72
2022/07/10 03:23:14;;;;;;;5.97;3.33;;;;;;;15.62;99.26;96804.81;5037741;28;20232;-73
2022/07/10 03:25:41;;;;;;;5.65;3.50;;;;;;;15.57;98.62;96812.53;5037308;28;20830;-73
2022/07/10 03:28:07;;;;;;;6.18;4.45;;;;;;;15.49;98.48;96805.53;5038139;28;20209;-72
2022/07/10 03:30:34;;;;;;;5.32;3.70;;;;;;;15.49;99.13;96807.34;5038158;28;20232;-72
2022/07/10 03:33:00;;;;;;;7.25;4.00;;;;;;;15.43;98.42;96814.25;5036607;28;20201;-72
2022/07/10 03:35:27;;;;;;;6.57;4.47;;;;;;;15.35;100.00;96813.56;5037893;28;20205;-72
2022/07/10 03:37:55;;;;;;;8.25;4.55;;;;;;;15.47;100.00;96820.81;5034343;28;20220;-72
2022/07/10 03:40:21;;;;;;;8.77;5.05;;;;;;;15.35;100.00;96816.22;5037509;28;20225;-73
2022/07/10 03:42:48;;;;;;;6.63;3.60;;;;;;;15.34;99.75;96820.72;5036297;28;20236;-73
2022/07/10 03:45:14;;;;;;;5.28;3.45;;;;;;;15.35;98.58;96816.22;5036572;28;20436;-72
2022/07/10 03:47:41;;;;;;;8.65;3.08;;;;;;;15.26;98.48;96812.06;5037466;28;20197;-73
2022/07/10 03:50:09;;;;;;;6.20;3.75;;;;;;;15.51;98.71;96816.75;5037369;28;20232;-72
2022/07/10 03:52:35;;;;;;;7.43;3.95;;;;;;;15.22;100.00;96810.81;5036921;28;20205;-72
2022/07/10 03:55:03;;;;;;;6.70;4.15;;;;;;;15.36;98.40;96813.41;5037296;28;20205;-73
2022/07/10 04:00:15;;;;;;;8.55;4.75;;;;;;;15.40;100.00;96816.47;5036524;28;20272;-72
2022/07/10 04:02:42;;;;;;;6.80;4.45;;;;;;;15.52;100.00;96823.72;5036370;28;20228;-73
2022/07/10 04:05:09;;;;;;;7.35;4.95;;;;;;;15.46;100.00;96818.34;5036877;28;20212;-72
2022/07/10 04:07:35;;;;;;;5.47;3.90;;;;;;;15.40;100.00;96827.09;5036656;28;20259;-72
2022/07/10 04:10:03;;;;;;;7.18;3.72;;;;;;;15.35;98.47;96825.03;5036880;28;20225;-72
2022/07/10 04:12:30;;;;;;;5.40;3.55;;;;;;;15.39;98.22;96822.81;5036051;28;20583;-72
2022/07/10 04:14:57;;;;;;;5.22;3.58;;;;;;;15.45;99.45;96820.22;5037370;28;20221;-72
2022/07/10 04:17:23;;;;;;;5.28;4.00;;;;;;;15.58;100.00;96822.13;5036633;28;20217;-70
2022/07/10 04:19:50;;;;;;;7.72;4.32;;;;;;;15.53;99.54;96819.22;5036375;28;20224;-70
2022/07/10 04:22:16;;;;;;;7.22;4.28;;;;;;;15.34;100.00;96822.56;5037090;28;20209;-71
2022/07/10 04:24:43;;;;;;;9.10;4.68;;;;;;;15.49;100.00;96825.94;5036122;28;20225;-71
2022/07/10 04:27:10;;;;;;;9.68;4.97;;;;;;;15.75;100.00;96823.50;5036822;28;20205;-71
2022/07/10 04:29:37;;;;;;;10.45;5.07;;;;;;;15.79;100.00;96819.41;5037212;28;20225;-71
2022/07/10 04:32:04;;;;;;;9.40;5.00;;;;;;;15.88;100.00;96819.91;5037148;28;20220;-71
2022/07/10 04:34:31;;;;;;;10.57;4.63;;;;;;;15.78;100.00;96828.41;5035586;28;20661;-72
2022/07/10 04:36:58;;;;;;;10.68;5.32;;;;;;;16.06;100.00;96828.19;5033220;28;20211;-70
2022/07/10 04:39:24;;;;;;;13.18;5.30;;;;;;;16.25;100.00;96827.44;5036717;28;20783;-69
2022/07/10 04:41:51;;;;;;;10.40;5.28;;;;;;;16.01;100.00;96819.97;5036532;28;20201;-70
2022/07/10 04:44:19;;;;;;;13.95;5.20;;;;;;;16.37;100.00;96815.28;5035773;28;20232;-71
2022/07/10 04:46:46;;;;;;;15.07;5.70;;;;;;;16.45;100.00;96816.94;5036522;28;20209;-70
2022/07/10 04:49:12;;;;;;;9.25;5.63;;;;;;;16.45;100.00;96809.75;5036580;28;20221;-70
2022/07/10 04:51:39;;;;;;;11.82;5.97;;;;;;;16.42;100.00;96807.50;5036580;28;20201;-70
2022/07/10 04:54:05;;;;;;;12.60;5.90;;;;;;;16.55;100.00;96816.34;5036763;28;20204;-70
2022/07/10 04:56:32;;;;;;;12.82;6.20;;;;;;;16.62;100.00;96809.22;5040203;28;20555;-69
2022/07/10 04:58:58;;;;;;;9.45;5.97;;;;;;;16.60;100.00;96813.09;5040025;28;20209;-69
2022/07/10 05:01:26;;;;;;;10.57;6.18;;;;;;;16.71;100.00;96810.69;5040703;28;20208;-71
2022/07/10 05:03:52;;;;;;;11.10;5.82;;;;;;;16.72;100.00;96814.16;5039331;28;20248;-69
2022/07/10 05:06:19;;;;;;;9.52;6.05;;;;;;;16.93;100.00;96814.81;5040213;28;20206;-69
2022/07/10 05:08:45;;;;;;;9.77;6.05;;;;;;;17.09;100.00;96809.94;5040587;28;20200;-70
2022/07/10 05:11:12;;;;;;;11.73;6.47;;;;;;;17.17;100.00;96808.91;5040371;28;20696;-69
2022/07/10 05:13:38;;;;;;;9.13;5.65;;;;;;;17.30;100.00;96807.09;5039212;28;20201;-69
2022/07/10 05:16:05;;;;;;;12.73;6.25;;;;;;;17.38;100.00;96811.41;5040226;28;20616;-70
2022/07/10 05:18:33;;;;;;;10.80;5.55;;;;;;;17.17;100.00;96814.22;5040682;28;20201;-71
2022/07/10 05:21:00;;;;;;;13.63;5.95;;;;;;;17.07;100.00;96819.16;5040025;28;20587;-71
2022/07/10 05:23:26;;;;;;;8.05;5.03;;;;;;;17.19;99.23;96817.53;5039399;28;20387;-70
2022/07/10 05:25:53;;;;;;;8.45;5.50;;;;;;;17.19;99.75;96823.66;5040119;28;20205;-69
2022/07/10 05:28:19;;;;;;;7.93;4.15;;;;;;;17.55;95.89;96820.63;5039310;28;20202;-70
2022/07/10 05:30:46;;;;;;;10.95;5.03;;;;;;;17.65;95.34;96818.38;5039922;28;20680;-69
2022/07/10 05:33:12;;;;;;;9.80;4.70;;;;;;;17.82;94.61;96820.41;5039867;28;20197;-69
2022/07/10 05:35:40;;;;;;;8.35;4.90;;;;;;;17.92;92.82;96820.78;5039332;28;20201;-70
2022/07/10 05:38:07;;;;;;;10.27;5.15;;;;;;;17.88;92.70;96819.56;5036100;28;20669;-70
2022/07/10 05:40:33;;;;;;;5.57;3.88;;;;;;;18.12;91.48;96819.72;5040702;28;20221;-70
2022/07/10 05:43:00;;;;;;;7.57;4.65;;;;;;;17.79;92.20;96828.81;5038645;28;20204;-70
2022/07/10 05:45:27;;;;;;;5.88;3.72;;;;;;;17.45;91.51;96826.38;5039242;28;20212;-72
2022/07/10 05:47:53;;;;;;;6.25;3.42;;;;;;;17.35;92.05;96817.13;5040137;28;20209;-73
2022/07/10 05:50:20;;;;;;;5.50;3.70;;;;;;;17.26;93.51;96819.19;5039565;28;20228;-71
2022/07/10 05:52:48;;;;;;;7.60;3.33;;;;;;;17.39;95.68;96821.06;5038561;28;20216;-70
2022/07/10 05:55:15;;;;;;;6.65;3.47;;;;;;;17.67;93.16;96824.31;5039456;28;20208;-71
2022/07/10 05:57:41;;;;;;;4.95;3.33;;;;;;;17.63;93.40;96829.25;5039394;28;20635;-71
2022/07/10 06:00:09;;;;;;;8.18;3.40;;;;;;;17.76;92.55;96831.91;5039021;28;20232;-70
2022/07/10 06:02:36;;;;;;;12.02;3.20;;;;;;;17.69;89.85;96824.94;5038918;28;20209;-70
2022/07/10 06:05:02;;;;;;;9.52;3.72;;;;;;;17.47;91.05;96821.66;5037009;28;20229;-71
2022/07/10 06:07:29;;;;;;;7.30;3.42;;;;;;;17.66;90.23;96834.16;5036972;28;20938;-70
2022/07/10 06:09:57;;;;;;;10.38;3.10;;;;;;;18.05;90.11;96826.09;5038337;28;20728;-71
2022/07/10 06:12:23;;;;;;;4.75;2.97;;;;;;;18.07;89.38;96829.38;5037747;28;20216;-71
2022/07/10 06:14:50;;;;;;;4.78;2.90;;;;;;;18.33;89.11;96830.97;5038428;28;20216;-70
2022/07/10 06:17:16;;;;;;;7.15;3.10;;;;;;;18.80;88.27;96835.09;5038083;28;20201;-70
2022/07/10 06:19:42;;;;;;;7.57;2.90;;;;;;;19.09;85.30;96827.34;5038203;28;20267;-71
2022/07/10 06:24:53;;;;;;;6.93;2.85;;;;;;;18.82;83.99;96846.41;5037957;28;20232;-71
2022/07/10 06:27:21;;;;;;;4.63;2.75;;;;;;;19.03;83.89;96844.22;5038558;28;20205;-70
2022/07/10 06:29:48;;;;;;;5.40;2.60;;;;;;;19.09;84.78;96846.06;5038753;28;20229;-71
2022/07/10 06:32:14;;;;;;;5.05;2.80;;;;;;;18.97;83.66;96847.75;5038153;28;20213;-71
2022/07/10 06:34:41;;;;;;;4.32;2.70;;;;;;;18.33;85.28;96848.00;5038402;28;20212;-73
2022/07/10 06:37:07;;;;;;;6.55;2.67;;;;;;;18.38;86.79;96857.88;5036057;28;20606;-71
2022/07/10 06:39:35;;;;;;;4.97;2.92;;;;;;;18.50;86.12;96853.50;5038389;28;20221;-72
2022/07/10 06:42:02;;;;;;;4.15;2.50;;;;;;;18.45;87.59;96855.16;5037921;28;20233;-70
2022/07/10 06:44:30;;;;;;;5.65;2.88;;;;;;;18.32;84.97;96859.72;5036394;28;20224;-72
2022/07/10 06:49:41;;;;;;;5.80;2.83;;;;;;;17.92;87.55;96861.63;5037689;28;20299;-73
2022/07/10 06:52:08;;;;;;;9.52;3.15;;;;;;;18.06;88.89;96865.91;5038701;28;20205;-72
2022/07/10 06:54:35;;;;;;;7.00;2.70;;;;;;;17.89;90.08;96864.69;5038359;28;20197;-72
2022/07/10 06:57:02;;;;;;;5.15;2.30;;;;;;;17.98;87.06;96862.63;5037976;28;20198;-72
2022/07/10 06:59:30;;;;;;;4.97;2.50;;;;;;;18.04;86.49;96864.47;5038101;28;20266;-71
2022/07/10 07:01:56;;;;;;;4.82;2.67;;;;;;;17.92;86.83;96866.13;5039018;28;20201;-70
2022/07/10 07:04:23;;;;;;;8.05;2.58;;;;;;;17.89;87.31;96853.22;5036107;28;20951;-72
2022/07/10 07:06:49;;;;;;;8.38;2.35;;;;;;;18.23;85.76;96867.16;5037060;28;20201;-71
2022/07/10 07:09:16;;;;;;;3.15;2.35;;;;;;;18.47;85.55;96855.78;5037562;28;20232;-72
2022/07/10 07:11:42;;;;;;;4.78;2.80;;;;;;;18.45;82.53;96855.97;5037475;28;20201;-72
2022/07/10 07:14:09;;;;;;;4.95;2.60;;;;;;;18.57;84.63;96854.31;5036320;28;20939;-72
2022/07/10 07:16:42;;;;;;;3.90;2.55;;;;;;;18.49;84.44;96867.06;5038224;28;20209;-72
2022/07/10 07:19:10;;;;;;;3.58;2.35;;;;;;;18.43;83.42;96858.06;5037442;28;20287;-71
2022/07/10 07:24:21;;;;;;;3.90;2.50;;;;;;;18.74;84.42;96863.47;5037108;28;20732;-72
2022/07/10 07:26:48;;;;;;;4.78;2.85;;;;;;;18.90;83.22;96862.97;5037403;28;20205;-71
2022/07/10 07:29:14;;;;;;;6.80;2.80;;;;;;;18.67;82.10;96868.03;5037593;28;20221;-71
2022/07/10 07:31:43;;;;;;;14.32;2.95;;;;;;;19.04;83.38;96865.38;5037834;28;20197;-71
2022/07/10 07:34:10;;;;;;;5.70;2.80;;;;;;;19.17;82.56;96872.50;5034911;28;20193;-71
2022/07/10 07:36:37;;;;;;;4.35;2.50;;;;;;;18.88;84.04;96878.41;5034448;28;20209;-69
2022/07/10 07:39:04;;;;;;;5.53;2.75;;;;;;;18.68;80.84;96864.31;5036957;28;21035;-70
2022/07/10 07:41:30;;;;;;;7.18;2.50;;;;;;;18.71;81.78;96865.75;5037257;28;20193;-72
2022/07/10 07:43:57;;;;;;;6.60;2.83;;;;;;;18.97;80.14;96874.47;5035780;28;20217;-69
2022/07/10 07:46:24;;;;;;;7.22;2.83;;;;;;;19.42;77.31;96863.50;5033950;28;20221;-70
2022/07/10 07:48:52;;;;;;;4.60;2.55;;;;;;;19.50;77.61;96857.09;5034513;28;20301;-71
2022/07/10 07:51:18;;;;;;;6.82;2.63;;;;;;;19.47;75.43;96865.56;5036238;28;20216;-73
2022/07/10 07:53:45;;;;;;;3.83;2.05;;;;;;;20.06;74.94;96866.72;5035096;28;20201;-71
2022/07/10 07:56:12;;;;;;;4.35;2.53;;;;;;;20.42;76.84;96873.75;5036038;28;20284;-72
2022/07/10 07:58:38;;;;;;;3.30;1.90;;;;;;;19.89;69.09;96873.66;5035755;28;20205;-70
2022/07/10 08:01:05;;;;;;;3.13;2.00;;;;;;;19.90;71.93;96876.09;5035403;28;20551;-72
2022/07/10 08:03:31;;;;;;;2.92;1.70;;;;;;;19.43;73.23;96888.41;5035200;28;20205;-71
2022/07/10 08:05:59;;;;;;;3.80;2.28;;;;;;;19.06;75.00;96886.56;5036223;28;20220;-71
2022/07/10 08:08:26;;;;;;;2.83;1.90;;;;;;;18.77;77.14;96876.38;5036407;28;20206;-72
2022/07/10 08:10:52;;;;;;;4.32;2.30;;;;;;;18.77;76.46;96884.41;5036757;28;20240;-72
2022/07/10 08:13:19;;;;;;;3.60;2.22;;;;;;;18.57;77.80;96880.16;5034718;28;21380;-70
2022/07/10 08:15:45;;;;;;;6.50;2.33;;;;;;;18.46;77.72;96873.63;5035783;28;20212;-71
2022/07/10 08:18:11;;;;;;;3.60;1.70;;;;;;;18.58;77.30;96866.63;5035515;28;20208;-69
2022/07/10 08:20:38;;;;;;;3.25;1.80;;;;;;;18.98;75.02;96862.75;5035936;28;20224;-69
2022/07/10 08:23:06;;;;;;;4.45;2.20;;;;;;;19.06;75.48;96862.53;5033354;28;20212;-71
2022/07/10 08:25:32;;;;;;;3.80;2.13;;;;;;;18.94;75.81;96864.22;5034646;28;20597;-71
2022/07/10 08:28:01;;;;;;;6.55;1.83;;;;;;;18.78;77.32;96862.00;5035807;28;20208;-71
2022/07/10 08:30:28;;;;;;;3.08;1.90;;;;;;;18.91;76.22;96866.47;5034547;28;20289;-69
2022/07/10 08:32:55;;;;;;;2.95;2.00;;;;;;;19.26;75.68;96864.03;5034072;28;20197;-70
2022/07/10 08:35:22;;;;;;;7.93;2.13;;;;;;;19.35;70.77;96869.97;5034538;28;20247;-72
2022/07/10 08:37:49;;;;;;;3.45;2.05;;;;;;;19.28;74.97;96869.16;5033496;28;20205;-69
2022/07/10 08:40:18;;;;;;;3.17;1.58;;;;;;;19.46;69.30;96869.25;5034878;28;20231;-70
2022/07/10 08:42:45;;;;;;;4.97;1.60;;;;;;;19.73;68.61;96867.00;5034569;28;20197;-69
2022/07/10 08:45:13;;;;;;;3.80;1.30;;;;;;;19.66;67.49;96874.22;5034130;28;20225;-70
2022/07/10 08:47:41;;;;;;;3.88;1.38;;;;;;;19.65;66.16;96877.97;5035278;28;20213;-72
2022/07/10 08:50:17;;;;;;;5.90;1.17;;;;;;;19.66;66.55;96874.22;5034650;28;20340;-70
2022/07/10 08:52:46;;;;;;;4.82;1.27;;;;;;;19.70;64.13;96869.28;5034727;28;20221;-71
2022/07/10 08:55:14;;;;;;;4.70;1.50;;;;;;;20.04;67.07;96861.59;5034736;28;20209;-72
2022/07/10 08:57:44;;;;;;;4.78;1.00;;;;;;;20.27;63.71;96872.50;5036450;28;20205;-71
2022/07/10 09:00:11;;;;;;;3.70;1.73;;;;;;;19.97;63.31;96865.38;5036688;28;20221;-71
2022/07/10 09:02:37;;;;;;;5.05;1.10;;;;;;;19.47;64.91;96860.22;5035277;28;20231;-72
2022/07/10 09:05:08;;;;;;;2.92;1.20;;;;;;;19.73;63.96;96858.97;5035831;28;20221;-69
2022/07/10 09:07:36;;;;;;;2.25;1.27;;;;;;;19.96;60.99;96863.72;5036510;28;20216;-71
2022/07/10 09:10:07;;;;;;;4.00;1.27;;;;;;;20.05;61.58;96857.06;5036133;28;20225;-70
2022/07/10 09:12:52;;;;;;;2.08;1.20;;;;;;;20.55;64.21;96856.75;5035083;28;20201;-72
2022/07/10 09:15:20;;;;;;;7.13;1.30;;;;;;;20.24;60.33;96852.34;5034383;28;20209;-71
2022/07/10 09:17:52;;;;;;;1.00;0.93;;;;;;;20.04;59.60;96850.88;5034607;28;20205;-71
2022/07/10 09:20:30;;;;;;;2.20;1.25;;;;;;;20.32;62.22;96853.91;5035097;28;20601;-71
2022/07/10 09:22:58;;;;;;;1.67;1.23;;;;;;;20.15;62.19;96842.16;5035702;28;20212;-71
2022/07/10 09:25:31;;;;;;;2.00;1.27;;;;;;;20.63;62.39;96853.75;5035406;28;20229;-70
2022/07/10 09:28:05;;;;;;;1.95;1.30;;;;;;;19.82;60.78;96852.31;5035285;28;20292;-71
2022/07/10 09:30:35;;;;;;;3.15;1.40;;;;;;;20.28;61.42;96850.03;5035017;28;20260;-70
2022/07/10 09:33:25;;;;;;;3.88;1.20;;;;;;;20.36;63.59;96850.53;5034932;28;20216;-71
2022/07/10 09:36:06;;;;;;;2.92;1.42;;;;;;;20.03;62.17;96849.25;5033188;28;20200;-69
2022/07/10 09:38:51;;;;;;;2.50;1.33;;;;;;;20.37;62.51;96856.75;5034565;28;20220;-72
2022/07/10 09:41:20;;;;;;;2.75;1.23;;;;;;;20.17;60.52;96861.47;5035970;28;20565;-71
2022/07/10 09:43:49;;;;;;;2.13;1.30;;;;;;;20.31;60.39;96852.25;5036463;28;20791;-70
2022/07/10 09:46:16;;;;;;;2.58;1.50;;;;;;;20.48;61.51;96858.66;5038249;28;20225;-70
2022/07/10 09:48:42;;;;;;;1.98;1.10;;;;;;;20.53;60.00;96848.94;5038774;28;20621;-72
2022/07/10 09:51:11;;;;;;;4.78;1.23;;;;;;;21.07;62.42;96832.81;5037542;28;20224;-73
2022/07/10 09:53:40;;;;;;;2.45;1.20;;;;;;;20.44;60.03;96847.59;5038376;28;21159;-72
2022/07/10 09:56:08;;;;;;;2.28;1.35;;;;;;;20.30;60.68;96840.75;5039603;28;20221;-72
2022/07/10 09:58:36;;;;;;;2.13;1.23;;;;;;;20.89;62.63;96843.56;5038069;28;20318;-72
2022/07/10 10:01:05;;;;;;;4.32;1.25;;;;;;;21.14;59.25;96846.94;5039333;28;20253;-72
2022/07/10 10:03:35;;;;;;;3.05;1.17;;;;;;;20.88;57.92;96845.41;5039259;28;20498;-72
2022/07/10 10:06:04;;;;;;;1.98;1.10;;;;;;;20.97;57.14;96859.34;5039360;28;20334;-73
2022/07/10 10:08:33;;;;;;;1.88;0.98;;;;;;;21.00;54.00;96857.03;5040421;28;20205;-72
2022/07/10 10:11:01;;;;;;;4.32;1.30;;;;;;;21.22;56.71;96854.63;5040320;28;20224;-73
2022/07/10 10:13:30;;;;;;;2.95;1.27;;;;;;;21.35;57.46;96847.25;5039364;28;20213;-73
2022/07/10 10:15:57;;;;;;;2.75;1.10;;;;;;;20.44;58.30;96863.66;5039920;28;20201;-73
2022/07/10 10:18:27;;;;;;;3.97;1.20;;;;;;;20.30;58.79;96853.28;5040854;28;20209;-72
2022/07/10 10:20:54;;;;;;;1.42;1.00;;;;;;;19.85;59.32;96861.75;5040317;28;20237;-73
2022/07/10 10:23:22;;;;;;;3.70;1.10;;;;;;;19.94;58.53;96849.75;5038696;28;20205;-73
2022/07/10 10:25:49;;;;;;;1.88;1.35;;;;;;;20.41;56.75;96855.25;5040449;28;20232;-72
2022/07/10 10:28:17;;;;;;;2.50;1.30;;;;;;;21.29;54.38;96842.78;5039124;28;20296;-73
2022/07/10 10:30:46;;;;;;;1.75;1.10;;;;;;;21.76;56.14;96842.69;5039282;28;20217;-73
2022/07/10 10:33:51;;;;;;;1.88;1.08;;;;;;;21.17;55.46;96839.25;5040127;28;20240;-73
2022/07/10 10:36:54;;;;;;;3.45;1.10;;;;;;;20.40;57.81;96848.25;5037047;28;20619;-72
2022/07/10 10:39:21;;;;;;;3.13;1.20;;;;;;;20.20;58.62;96845.78;5035917;28;20328;-73
2022/07/10 10:41:49;;;;;;;2.80;1.48;;;;;;;19.94;58.48;96847.91;5039722;28;20236;-73
2022/07/10 10:44:35;;;;;;;1.75;1.27;;;;;;;20.07;59.02;96847.75;5038922;28;20201;-72
2022/07/10 10:47:06;;;;;;;2.78;1.20;;;;;;;20.48;58.55;96845.28;5039233;28;20578;-73
2022/07/10 10:49:51;;;;;;;2.55;0.90;;;;;;;20.79;53.81;96842.47;5038760;28;20233;-73
2022/07/10 10:52:18;;;;;;;1.40;0.95;;;;;;;20.99;53.41;96831.25;5038496;28;20205;-74
2022/07/10 10:55:03;;;;;;;1.40;1.30;;;;;;;21.54;51.96;96830.06;5038619;28;20202;-73
2022/07/10 10:57:40;;;;;;;2.60;1.10;;;;;;;21.40;52.58;96836.66;5039459;28;20209;-73
2022/07/10 11:00:08;;;;;;;1.33;1.00;;;;;;;20.86;53.22;96841.31;5038725;28;20225;-73
2022/07/10 11:02:37;;;;;;;5.30;1.25;;;;;;;20.65;53.16;96846.31;5038225;28;20205;-72
2022/07/10 11:05:43;;;;;;;1.55;1.20;;;;;;;20.52;53.84;96849.97;5039014;28;20224;-73
2022/07/10 11:08:11;;;;;;;1.65;1.20;;;;;;;20.65;54.54;96843.66;5038734;28;20248;-73
2022/07/10 11:10:39;;;;;;;1.80;0.77;;;;;;;20.55;54.08;96851.38;5038771;28;20263;-73
2022/07/10 11:13:07;;;;;;;2.70;1.30;;;;;;;20.94;54.36;96855.25;5038621;28;20231;-72
2022/07/10 11:15:35;;;;;;;2.20;0.93;;;;;;;20.51;53.81;96845.66;5037789;28;20208;-72
2022/07/10 11:18:05;;;;;;;5.10;1.10;;;;;;;20.59;52.97;96844.53;5036325;28;20201;-72
2022/07/10 11:20:33;;;;;;;4.13;1.00;;;;;;;20.67;53.25;96846.91;5037183;28;20666;-72
2022/07/10 11:23:40;;;;;;;6.45;1.35;;;;;;;20.91;51.72;96853.03;5035909;28;20299;-73
2022/07/10 11:26:11;;;;;;;3.00;1.30;;;;;;;20.76;52.53;96841.06;5015539;28;21113;-72
2022/07/10 11:28:51;;;;;;;3.97;1.00;;;;;;;20.79;52.81;96850.50;5037278;28;20623;-73
2022/07/10 11:31:18;;;;;;;4.03;0.90;;;;;;;20.45;54.62;96843.84;5036808;28;20557;-73
2022/07/10 11:33:47;;;;;;;1.60;1.20;;;;;;;20.82;55.89;96842.03;5036924;28;20690;-73
2022/07/10 11:36:16;;;;;;;1.35;1.10;;;;;;;20.47;54.83;96843.66;5034376;28;20666;-73
2022/07/10 11:38:45;;;;;;;4.18;1.23;;;;;;;20.20;55.29;96845.78;5037061;28;20201;-72
2022/07/10 11:41:16;;;;;;;2.03;1.05;;;;;;;20.22;54.04;96851.72;5036261;28;20221;-73
2022/07/10 11:43:50;;;;;;;2.95;1.70;;;;;;;20.74;53.88;96832.41;5036952;28;20209;-72
2022/07/10 11:46:16;;;;;;;1.75;1.02;;;;;;;20.71;52.60;96842.72;5036989;28;20228;-72
2022/07/10 11:48:44;;;;;;;1.60;1.10;;;;;;;21.36;49.92;96832.78;5036353;28;20413;-73